.
WxDataArchive / Data Records for 2013-12-04
2013-12-03 December 2013 2013-12-05

Data Records for Wednesday, 04 December 2013

Time	Temp	Chill	HIndex	Humid	Dewpt	 Wind 	HiWind	WindDir	Rain 	Barom 
-----	----	-----	------	-----	-----	------	------	-------	-----	----- 
00:00	44.1	44.1	44.1	94	42.5	0	0	---	0.00	29.829 
00:05	44.1	44.1	44.1	94	42.5	0	0	---	0.00	29.829 
00:10	44.1	44.1	44.1	94	42.5	0	0	---	0.00	29.829 
00:15	44.1	44.1	44.1	94	42.5	0	1	135	0.00	29.812 
00:20	43.9	43.9	43.9	94	42.3	0	1	135	0.00	29.812 
00:25	43.9	43.9	43.9	94	42.3	0	1	135	0.00	29.812 
00:30	44.1	44.1	44.1	94	42.5	0	2	135	0.00	29.797 
00:35	44.2	44.2	44.2	94	42.6	0	1	135	0.00	29.797 
00:40	44.2	44.2	44.2	94	42.6	0	0	---	0.00	29.797 
00:45	44.2	44.2	44.2	94	42.6	0	0	---	0.00	29.796 
00:50	44.1	44.1	44.1	94	42.5	0	1	135	0.00	29.796 
00:55	43.9	43.9	43.9	94	42.3	0	0	---	0.00	29.796 
01:00	43.9	43.9	43.9	94	42.3	0	0	---	0.00	29.791 
01:05	43.9	43.9	43.9	94	42.3	0	1	135	0.00	29.791 
01:10	43.9	43.9	43.9	94	42.3	0	1	135	0.00	29.791 
01:15	43.8	43.8	43.8	94	42.2	0	0	---	0.00	29.785 
01:20	43.6	43.6	43.6	94	42.0	0	0	---	0.00	29.785 
01:25	43.5	43.5	43.5	94	41.9	0	0	---	0.00	29.785 
01:30	43.3	43.3	43.3	94	41.7	0	0	---	0.00	29.794 
01:35	43.2	43.2	43.2	94	41.6	0	0	---	0.00	29.794 
01:40	43.2	43.2	43.2	94	41.6	0	0	---	0.00	29.794 
01:45	43.1	43.1	43.1	94	41.5	0	0	---	0.00	29.786 
01:50	43.1	43.1	43.1	94	41.5	0	0	---	0.00	29.786 
01:55	43.1	43.1	43.1	94	41.5	0	0	---	0.00	29.786 
02:00	43.1	43.1	43.1	94	41.5	0	0	---	0.00	29.786 
02:05	42.9	42.9	42.9	94	41.3	0	0	---	0.00	29.786 
02:10	42.9	42.9	42.9	94	41.3	0	0	---	0.00	29.786 
02:15	42.8	42.8	42.8	94	41.2	0	0	---	0.00	29.789 
02:20	42.6	42.6	42.6	94	41.0	0	0	---	0.00	29.789 
02:25	42.5	42.5	42.5	94	40.9	0	0	---	0.00	29.789 
02:30	42.2	42.2	42.2	94	40.6	0	0	---	0.00	29.795 
02:35	42.1	42.1	42.1	94	40.5	0	0	---	0.00	29.795 
02:40	41.8	41.8	41.8	94	40.2	0	0	---	0.00	29.795 
02:45	41.5	41.5	41.5	94	39.9	0	0	---	0.00	29.796 
02:50	41.1	41.1	41.1	94	39.5	0	0	---	0.00	29.796 
02:55	40.8	40.8	40.8	94	39.2	0	0	---	0.00	29.796 
03:00	40.5	40.5	40.5	94	38.9	0	0	---	0.00	29.817 
03:05	40.3	40.3	40.3	94	38.7	0	0	---	0.00	29.817 
03:10	40.1	40.1	40.1	94	38.5	0	0	---	0.00	29.817 
03:15	39.9	39.9	39.9	94	38.3	0	0	---	0.00	29.821 
03:20	39.9	39.9	39.9	94	38.3	0	0	---	0.00	29.821 
03:25	40.2	40.2	40.2	94	38.6	0	0	---	0.00	29.821 
03:30	40.8	40.8	40.8	95	39.5	0	0	---	0.00	29.810 
03:35	41.1	41.1	41.1	95	39.8	0	0	---	0.00	29.810 
03:40	41.2	41.2	41.2	95	39.9	0	0	---	0.00	29.810 
03:45	41.2	41.2	41.2	95	39.9	0	0	---	0.00	29.818 
03:50	41.3	41.3	41.3	95	40.0	0	0	---	0.00	29.818 
03:55	41.3	41.3	41.3	95	40.0	0	0	---	0.00	29.818 
04:00	41.5	41.5	41.5	95	40.2	0	1	135	0.00	29.809 
04:05	41.6	41.6	41.6	95	40.3	0	0	---	0.00	29.809 
04:10	41.8	41.8	41.8	95	40.5	0	0	---	0.00	29.809 
04:15	41.9	41.9	41.9	95	40.6	0	1	135	0.00	29.802 
04:20	42.1	42.1	42.1	95	40.8	0	0	---	0.00	29.802 
04:25	42.2	42.2	42.2	95	40.9	0	0	---	0.00	29.802 
04:30	42.2	42.2	42.2	95	40.9	0	0	---	0.00	29.801 
04:35	42.3	42.3	42.3	95	41.0	0	0	---	0.00	29.801 
04:40	42.5	42.5	42.5	95	41.2	0	0	---	0.00	29.801 
04:45	42.5	42.5	42.5	95	41.2	0	0	---	0.00	29.812 
04:50	42.6	42.6	42.6	95	41.3	0	0	---	0.00	29.812 
04:55	42.8	42.8	42.8	95	41.5	0	0	---	0.00	29.812 
05:00	42.9	42.9	42.9	95	41.6	0	0	---	0.00	29.811 
05:05	43.1	43.1	43.1	95	41.8	0	0	---	0.00	29.811 
05:10	43.1	43.1	43.1	95	41.8	0	0	---	0.00	29.811 
05:15	43.2	43.2	43.2	95	41.9	0	0	---	0.00	29.808 
05:20	43.2	43.2	43.2	96	42.1	0	0	---	0.00	29.808 
05:25	43.3	43.3	43.3	96	42.2	0	0	---	0.00	29.808 
05:30	43.3	43.3	43.3	96	42.2	0	0	---	0.00	29.813 
05:35	43.3	43.3	43.3	95	42.0	0	0	---	0.00	29.813 
05:40	43.3	43.3	43.3	96	42.2	0	0	---	0.00	29.813 
05:45	43.5	43.5	43.5	96	42.4	0	0	---	0.00	29.819 
05:50	43.5	43.5	43.5	96	42.4	0	0	---	0.00	29.819 
05:55	43.5	43.5	43.5	96	42.4	0	0	---	0.00	29.819 
06:00	43.6	43.6	43.6	96	42.5	0	0	---	0.00	29.814 
06:05	43.8	43.8	43.8	96	42.7	0	0	---	0.00	29.814 
06:10	43.9	43.9	43.9	96	42.8	0	0	---	0.00	29.814 
06:15	44.1	44.1	44.1	96	43.0	0	0	---	0.00	29.810 
06:20	44.1	44.1	44.1	96	43.0	0	0	---	0.00	29.810 
06:25	44.2	44.2	44.2	96	43.1	0	0	---	0.00	29.810 
06:30	44.2	44.2	44.2	96	43.1	0	0	---	0.00	29.817 
06:35	44.3	44.3	44.3	96	43.2	0	0	---	0.00	29.817 
06:40	44.3	44.3	44.3	96	43.2	0	0	---	0.00	29.817 
06:45	44.5	44.5	44.5	96	43.4	0	0	---	0.00	29.820 
06:50	44.5	44.5	44.5	96	43.4	0	0	---	0.00	29.820 
06:55	44.6	44.6	44.6	96	43.5	0	0	---	0.00	29.820 
07:00	44.8	44.8	44.8	96	43.7	0	0	---	0.00	29.818 
07:05	44.9	44.9	44.9	96	43.8	0	0	---	0.00	29.818 
07:10	45.1	45.1	45.1	96	44.0	0	0	---	0.00	29.818 
07:15	45.2	45.2	45.2	96	44.1	0	1	135	0.00	29.822 
07:20	45.4	45.4	45.4	96	44.3	0	1	135	0.00	29.822 
07:25	45.5	45.5	45.5	96	44.4	0	1	135	0.00	29.822 
07:30	45.7	45.7	45.7	96	44.6	0	1	135	0.00	29.822 
07:35	45.7	45.7	45.7	96	44.6	0	0	---	0.00	29.822 
07:40	45.7	45.7	45.7	95	44.4	0	0	---	0.00	29.822 
07:45	45.7	45.7	45.7	96	44.6	0	0	---	0.00	29.824 
07:50	45.8	45.8	45.8	96	44.7	0	0	---	0.00	29.824 
07:55	45.8	45.8	45.8	95	44.4	0	0	---	0.00	29.824 
08:00	45.8	45.8	45.8	96	44.7	0	0	---	0.00	29.826 
08:05	46.0	46.0	46.0	96	44.9	0	0	---	0.00	29.826 
08:10	46.0	46.0	46.0	96	44.9	0	0	---	0.00	29.826 
08:15	46.0	46.0	46.0	96	44.9	0	0	---	0.00	29.836 
08:20	46.1	46.1	46.1	96	45.0	0	0	---	0.00	29.836 
08:25	46.1	46.1	46.1	95	44.7	0	0	---	0.00	29.836 
08:30	46.1	46.1	46.1	95	44.7	0	0	---	0.00	29.840 
08:35	46.1	46.1	46.1	95	44.7	0	1	135	0.00	29.840 
08:40	46.2	46.2	46.2	96	45.1	0	1	135	0.00	29.840 
08:45	46.4	46.4	46.4	95	45.0	0	0	---	0.00	29.838 
08:50	46.5	46.5	46.5	96	45.4	0	0	---	0.00	29.838 
08:55	46.7	46.7	46.7	96	45.6	0	1	135	0.00	29.838 
09:00	46.7	46.7	46.7	96	45.6	0	1	135	0.00	29.835 
09:05	46.8	46.8	46.8	96	45.7	0	1	135	0.00	29.835 
09:10	47.0	47.0	47.0	96	45.9	0	1	135	0.00	29.835 
09:15	47.1	47.1	47.1	95	45.7	0	1	135	0.00	29.830 
09:20	47.1	47.1	47.1	96	46.0	0	2	135	0.00	29.830 
09:25	47.3	47.3	47.3	95	45.9	0	1	135	0.00	29.830 
09:30	47.3	47.3	47.3	95	45.9	0	1	135	0.00	29.826 
09:35	47.3	47.3	47.3	95	45.9	1	4	135	0.00	29.826 
09:40	47.1	47.1	47.1	95	45.7	2	4	112	0.00	29.826 
09:45	47.1	47.1	47.1	95	45.7	1	4	112	0.00	29.824 
09:50	47.3	47.3	47.3	95	45.9	2	4	112	0.00	29.824 
09:55	47.1	47.1	47.1	95	45.7	1	4	112	0.00	29.824 
10:00	47.1	47.1	47.1	94	45.5	1	3	112	0.00	29.818 
10:05	47.1	47.1	47.1	94	45.5	2	5	112	0.00	29.818 
10:10	47.3	47.3	47.3	94	45.7	1	4	68	0.00	29.818 
10:15	47.4	47.4	47.4	94	45.8	1	3	68	0.00	29.823 
10:20	47.4	47.4	47.4	94	45.8	0	2	90	0.00	29.823 
10:25	47.6	47.6	47.6	94	46.0	1	3	90	0.00	29.823 
10:30	47.7	47.7	47.7	94	46.1	1	3	112	0.00	29.813 
10:35	47.9	47.9	47.9	94	46.3	1	4	112	0.00	29.813 
10:40	48.0	48.0	48.0	94	46.4	1	4	90	0.00	29.813 
10:45	48.0	48.0	48.0	94	46.4	1	3	90	0.00	29.810 
10:50	48.2	48.2	48.2	94	46.6	1	4	90	0.00	29.810 
10:55	48.3	48.3	48.3	94	46.7	1	4	135	0.00	29.810 
11:00	48.5	48.5	48.5	94	46.9	1	4	112	0.00	29.807 
11:05	48.6	48.6	48.6	93	46.7	1	4	112	0.00	29.807 
11:10	48.8	48.8	48.8	93	46.9	2	6	90	0.00	29.807 
11:15	48.9	48.9	48.9	93	47.0	1	5	112	0.00	29.805 
11:20	49.1	49.1	49.1	93	47.2	1	4	112	0.00	29.805 
11:25	49.2	49.2	49.2	93	47.3	2	5	90	0.00	29.805 
11:30	49.4	49.4	49.4	93	47.5	1	3	68	0.00	29.796 
11:35	49.6	49.6	49.6	93	47.7	1	3	112	0.00	29.796 
11:40	49.8	49.8	49.8	92	47.6	2	4	90	0.00	29.796 
11:45	49.9	49.9	49.9	92	47.7	1	3	90	0.00	29.779 
11:50	50.2	50.2	50.2	92	48.0	1	4	90	0.00	29.779 
11:55	50.5	50.5	50.5	92	48.3	1	4	112	0.00	29.779 
12:00	50.7	50.7	50.7	92	48.5	1	5	112	0.00	29.769 
12:05	50.8	50.8	50.8	92	48.6	1	6	90	0.00	29.769 
12:10	50.8	50.8	50.8	92	48.6	1	4	112	0.00	29.769 
12:15	51.0	51.0	51.0	92	48.8	1	4	112	0.00	29.759 
12:20	51.1	51.1	51.1	92	48.9	1	3	90	0.00	29.759 
12:25	51.3	51.3	51.3	92	49.1	1	5	90	0.00	29.759 
12:30	51.4	51.4	51.4	92	49.2	1	4	90	0.00	29.747 
12:35	51.6	51.6	51.6	91	49.1	1	3	135	0.00	29.747 
12:40	51.9	51.9	51.9	91	49.4	1	5	135	0.00	29.747 
12:45	52.0	52.0	52.0	91	49.5	1	2	112	0.00	29.728 
12:50	52.2	52.2	52.2	91	49.7	1	3	135	0.00	29.728 
12:55	52.3	52.3	52.3	91	49.8	1	5	135	0.00	29.728 
13:00	52.5	52.5	52.5	91	49.9	1	5	112	0.00	29.727 
13:05	52.6	52.6	52.6	90	49.7	2	7	90	0.00	29.727 
13:10	52.8	52.8	52.8	90	49.9	1	4	112	0.00	29.727 
13:15	52.9	52.9	52.9	90	50.0	2	6	90	0.00	29.719 
13:20	53.1	53.1	53.1	90	50.2	2	6	68	0.00	29.719 
13:25	53.2	53.2	53.2	90	50.3	2	4	112	0.00	29.719 
13:30	53.2	53.2	53.2	90	50.3	2	5	112	0.00	29.707 
13:35	53.3	53.3	53.3	90	50.4	1	5	90	0.00	29.707 
13:40	53.5	53.5	53.5	90	50.6	2	5	90	0.00	29.707 
13:45	53.5	53.5	53.5	90	50.6	1	4	90	0.00	29.693 
13:50	53.6	53.6	53.6	90	50.7	1	4	112	0.00	29.693 
13:55	53.6	53.6	53.6	90	50.7	1	3	90	0.00	29.693 
14:00	53.8	53.8	53.8	90	50.9	1	4	135	0.00	29.692 
14:05	53.9	53.9	53.9	90	51.0	1	3	135	0.00	29.692 
14:10	53.9	53.9	53.9	90	51.0	1	4	112	0.00	29.692 
14:15	54.1	54.1	54.1	90	51.2	1	3	112	0.00	29.692 
14:20	54.1	54.1	54.1	90	51.2	1	3	135	0.00	29.692 
14:25	54.2	54.2	54.2	90	51.3	1	3	135	0.00	29.692 
14:30	54.2	54.2	54.2	90	51.3	1	3	225	0.00	29.682 
14:35	54.2	54.2	54.2	90	51.3	1	4	68	0.00	29.682 
14:40	54.4	54.4	54.4	90	51.5	1	4	112	0.00	29.682 
14:45	54.4	54.4	54.4	90	51.5	1	3	112	0.00	29.676 
14:50	54.5	54.5	54.5	90	51.6	1	5	135	0.01	29.676 
14:55	54.5	54.5	54.5	90	51.6	0	3	158	0.00	29.676 
15:00	54.5	54.5	54.5	91	51.9	1	6	112	0.00	29.670 
15:05	54.5	54.5	54.5	91	51.9	1	3	90	0.00	29.670 
15:10	54.5	54.5	54.5	91	51.9	1	3	112	0.00	29.670 
15:15	54.5	54.5	54.5	92	52.2	1	3	112	0.00	29.663 
15:20	54.7	54.7	54.7	92	52.4	1	4	112	0.00	29.663 
15:25	54.7	54.7	54.7	92	52.4	1	4	112	0.00	29.663 
15:30	54.8	54.8	54.8	92	52.5	1	4	90	0.00	29.659 
15:35	55.0	55.0	55.0	92	52.7	3	9	112	0.00	29.659 
15:40	55.0	55.0	55.0	92	52.7	2	6	135	0.00	29.659 
15:45	55.1	55.1	55.1	92	52.8	2	6	90	0.00	29.651 
15:50	55.3	55.3	55.3	92	53.0	2	5	90	0.00	29.651 
15:55	55.3	55.3	55.3	92	53.0	2	7	112	0.00	29.651 
16:00	55.4	55.4	55.4	92	53.1	2	7	112	0.00	29.656 
16:05	55.4	55.4	55.4	92	53.1	2	4	90	0.00	29.656 
16:10	55.4	55.4	55.4	92	53.1	1	4	90	0.00	29.656 
16:15	55.6	55.6	55.6	92	53.3	2	5	112	0.00	29.653 
16:20	55.6	55.6	55.6	92	53.3	2	4	90	0.00	29.653 
16:25	55.7	55.7	55.7	92	53.4	2	6	90	0.00	29.653 
16:30	55.7	55.7	55.7	92	53.4	1	4	135	0.00	29.659 
16:35	55.9	55.9	55.9	92	53.6	2	6	112	0.00	29.659 
16:40	56.0	56.0	56.0	92	53.7	2	9	112	0.00	29.659 
16:45	56.2	56.2	56.2	92	53.9	3	6	112	0.00	29.655 
16:50	56.2	56.2	56.2	91	53.6	3	6	90	0.00	29.655 
16:55	56.3	56.3	56.3	91	53.7	2	6	112	0.00	29.655 
17:00	56.3	56.3	56.3	91	53.7	3	6	90	0.00	29.648 
17:05	56.5	56.5	56.5	91	53.9	2	6	112	0.00	29.648 
17:10	56.5	56.5	56.5	91	53.9	2	7	90	0.00	29.648 
17:15	56.5	56.5	56.5	91	53.9	2	4	90	0.00	29.642 
17:20	56.5	56.5	56.5	91	53.9	2	5	112	0.00	29.642 
17:25	56.5	56.5	56.5	91	53.9	1	3	112	0.00	29.642 
17:30	56.5	56.5	56.5	91	53.9	1	3	112	0.00	29.644 
17:35	56.5	56.5	56.5	91	53.9	1	4	112	0.00	29.644 
17:40	56.5	56.5	56.5	91	53.9	2	7	135	0.00	29.644 
17:45	56.5	56.5	56.5	91	53.9	2	5	90	0.00	29.643 
17:50	56.5	56.5	56.5	91	53.9	1	5	68	0.00	29.643 
17:55	56.5	56.5	56.5	91	53.9	2	6	112	0.00	29.643 
18:00	56.5	56.5	56.5	91	53.9	1	4	90	0.00	29.644 
18:05	56.5	56.5	56.5	91	53.9	2	7	90	0.00	29.644 
18:10	56.6	56.6	56.6	91	54.0	1	6	112	0.00	29.644 
18:15	56.6	56.6	56.6	91	54.0	1	5	112	0.00	29.650 
18:20	56.6	56.6	56.6	91	54.0	1	3	112	0.00	29.650 
18:25	56.6	56.6	56.6	91	54.0	1	4	112	0.00	29.650 
18:30	56.6	56.6	56.6	91	54.0	0	3	90	0.00	29.646 
18:35	56.6	56.6	56.6	91	54.0	1	3	90	0.00	29.646 
18:40	56.6	56.6	56.6	91	54.0	1	3	90	0.00	29.646 
18:45	56.5	56.5	56.5	91	53.9	1	3	135	0.00	29.652 
18:50	56.5	56.5	56.5	91	53.9	1	5	112	0.00	29.652 
18:55	56.5	56.5	56.5	91	53.9	1	5	90	0.00	29.652 
19:00	56.5	56.5	56.5	91	53.9	1	5	135	0.00	29.647 
19:05	56.5	56.5	56.5	91	53.9	2	5	112	0.00	29.647 
19:10	56.6	56.6	56.6	91	54.0	1	4	135	0.00	29.647 
19:15	56.6	56.6	56.6	91	54.0	2	5	112	0.00	29.645 
19:20	56.6	56.6	56.6	91	54.0	1	4	112	0.00	29.645 
19:25	56.7	56.7	56.7	91	54.1	1	4	135	0.00	29.645 
19:30	56.7	56.7	56.7	91	54.1	1	5	112	0.00	29.649 
19:35	56.7	56.7	56.7	91	54.1	1	4	112	0.00	29.649 
19:40	56.9	56.9	56.9	91	54.3	2	6	90	0.00	29.649 
19:45	56.9	56.9	56.9	91	54.3	1	4	112	0.00	29.642 
19:50	56.9	56.9	56.9	91	54.3	1	5	112	0.00	29.642 
19:55	56.9	56.9	56.9	91	54.3	1	3	90	0.00	29.642 
20:00	56.9	56.9	56.9	91	54.3	1	4	90	0.00	29.648 
20:05	56.9	56.9	56.9	91	54.3	0	2	90	0.00	29.648 
20:10	56.9	56.9	56.9	91	54.3	1	4	90	0.00	29.648 
20:15	57.0	57.0	57.0	91	54.4	1	3	90	0.00	29.642 
20:20	57.0	57.0	57.0	91	54.4	1	3	90	0.00	29.642 
20:25	57.0	57.0	57.0	91	54.4	1	4	90	0.00	29.642 
20:30	57.2	57.2	57.2	91	54.6	1	3	90	0.00	29.644 
20:35	57.2	57.2	57.2	90	54.3	1	4	90	0.00	29.644 
20:40	57.2	57.2	57.2	90	54.3	1	4	112	0.00	29.644 
20:45	57.3	57.3	57.3	90	54.4	1	5	135	0.00	29.638 
20:50	57.3	57.3	57.3	90	54.4	1	6	112	0.00	29.638 
20:55	57.5	57.5	57.5	90	54.6	1	3	112	0.00	29.638 
21:00	57.5	57.5	57.5	90	54.6	1	4	112	0.00	29.635 
21:05	57.6	57.6	57.6	90	54.7	1	5	112	0.01	29.635 
21:10	57.6	57.6	57.6	89	54.4	2	5	112	0.00	29.635 
21:15	57.8	57.8	57.8	89	54.6	2	6	90	0.00	29.633 
21:20	57.8	57.8	57.8	89	54.6	1	4	90	0.00	29.633 
21:25	57.8	57.8	57.8	89	54.6	2	7	112	0.00	29.633 
21:30	57.8	57.8	57.8	89	54.6	2	5	112	0.00	29.623 
21:35	57.8	57.8	57.8	89	54.6	1	4	135	0.00	29.623 
21:40	57.8	57.8	57.8	89	54.6	1	4	112	0.00	29.623 
21:45	57.8	57.8	57.8	89	54.6	0	2	112	0.00	29.638 
21:50	57.8	57.8	57.8	89	54.6	0	2	112	0.00	29.638 
21:55	57.8	57.8	57.8	89	54.6	1	5	90	0.00	29.638 
22:00	58.0	58.0	58.0	89	54.8	0	2	90	0.00	29.629 
22:05	58.0	58.0	58.0	89	54.8	0	2	90	0.00	29.629 
22:10	57.8	57.8	57.8	89	54.6	1	4	90	0.00	29.629 
22:15	57.8	57.8	57.8	89	54.6	0	3	90	0.00	29.628 
22:20	57.8	57.8	57.8	89	54.6	0	2	90	0.00	29.628 
22:25	58.0	58.0	58.0	89	54.8	1	4	90	0.00	29.628 
22:30	58.1	58.1	58.1	89	54.9	1	5	248	0.00	29.625 
22:35	58.1	58.1	58.1	88	54.6	1	3	270	0.00	29.625 
22:40	58.3	58.3	58.3	88	54.8	1	3	90	0.00	29.625 
22:45	58.4	58.4	58.4	88	54.9	1	3	45	0.00	29.630 
22:50	58.6	58.6	58.6	88	55.1	1	5	248	0.00	29.630 
22:55	58.7	58.7	58.7	88	55.2	1	5	248	0.00	29.630 
23:00	58.7	58.7	58.7	87	54.8	0	2	248	0.00	29.625 
23:05	58.9	58.9	58.9	87	55.0	0	2	248	0.00	29.625 
23:10	58.9	58.9	58.9	87	55.0	0	2	248	0.00	29.625 
23:15	58.9	58.9	58.9	87	55.0	1	3	248	0.00	29.631 
23:20	58.7	58.7	58.7	87	54.8	1	3	248	0.00	29.631 
23:25	58.7	58.7	58.7	86	54.5	0	2	248	0.00	29.631 
23:30	58.7	58.7	58.7	87	54.8	0	3	248	0.00	29.627 
23:35	58.6	58.6	58.6	87	54.7	0	3	248	0.00	29.627 
23:40	58.6	58.6	58.6	87	54.7	0	2	248	0.00	29.627 
23:45	58.6	58.6	58.6	87	54.7	0	2	248	0.00	29.624 
23:50	58.4	58.4	58.4	87	54.5	0	2	248	0.00	29.624 
23:55	58.4	58.4	58.4	87	54.5	0	2	248	0.00	29.624 

CoCoRaHS
IN-AL-39
A2 Web Hosting
Creative Commons License
GoDaddy
search engine by freefind advanced

loaded 2018-11-17 18:52:15 • last modified 2010-11-18 10:43:29
Privacy PolicyDisclaimer
• wx.awcolley.com is powered by PmWiki v.2002016 •
• all content (unless otherwise noted) © 2018 A W Colley